sensor_id;sensor_type;location;lat;lon;timestamp;pressure;altitude;pressure_sealevel;temperature;humidity
54900;BME280;40801;41.924;25.562;2023-02-22T00:00:20;99382.78;;;8.37;55.51
54900;BME280;40801;41.924;25.562;2023-02-22T00:03:05;99379.84;;;8.38;55.78
54900;BME280;40801;41.924;25.562;2023-02-22T00:05:32;99369.47;;;8.27;55.83
54900;BME280;40801;41.924;25.562;2023-02-22T00:07:57;99382.91;;;8.27;56.24
54900;BME280;40801;41.924;25.562;2023-02-22T00:10:25;99376.50;;;8.23;56.27
54900;BME280;40801;41.924;25.562;2023-02-22T00:12:52;99370.19;;;8.14;56.32
54900;BME280;40801;41.924;25.562;2023-02-22T00:15:21;99371.09;;;8.04;56.79
54900;BME280;40801;41.924;25.562;2023-02-22T00:17:46;99386.13;;;8.05;56.47
54900;BME280;40801;41.924;25.562;2023-02-22T00:20:14;99376.09;;;7.92;57.26
54900;BME280;40801;41.924;25.562;2023-02-22T00:22:45;99396.03;;;7.86;56.62
54900;BME280;40801;41.924;25.562;2023-02-22T00:25:13;99386.44;;;7.80;56.85
54900;BME280;40801;41.924;25.562;2023-02-22T00:27:38;99380.81;;;7.81;57.15
54900;BME280;40801;41.924;25.562;2023-02-22T00:30:05;99378.78;;;7.68;56.63
54900;BME280;40801;41.924;25.562;2023-02-22T00:32:31;99370.84;;;7.58;57.01
54900;BME280;40801;41.924;25.562;2023-02-22T00:34:57;99365.50;;;7.58;57.31
54900;BME280;40801;41.924;25.562;2023-02-22T00:37:23;99374.63;;;7.57;57.29
54900;BME280;40801;41.924;25.562;2023-02-22T00:39:49;99372.59;;;7.43;57.67
54900;BME280;40801;41.924;25.562;2023-02-22T00:42:16;99370.63;;;7.54;56.86
54900;BME280;40801;41.924;25.562;2023-02-22T00:44:42;99370.44;;;7.45;57.05
54900;BME280;40801;41.924;25.562;2023-02-22T00:47:07;99379.72;;;7.29;57.79
54900;BME280;40801;41.924;25.562;2023-02-22T00:49:34;99369.28;;;7.28;57.76
54900;BME280;40801;41.924;25.562;2023-02-22T00:52:00;99370.13;;;7.23;57.71
54900;BME280;40801;41.924;25.562;2023-02-22T00:54:26;99370.22;;;7.13;57.53
54900;BME280;40801;41.924;25.562;2023-02-22T00:56:51;99359.13;;;6.91;57.91
54900;BME280;40801;41.924;25.562;2023-02-22T00:59:16;99379.78;;;6.90;58.34
54900;BME280;40801;41.924;25.562;2023-02-22T01:01:42;99376.06;;;6.86;58.39
54900;BME280;40801;41.924;25.562;2023-02-22T01:04:08;99375.72;;;6.93;57.79
54900;BME280;40801;41.924;25.562;2023-02-22T01:06:33;99369.38;;;6.83;58.24
54900;BME280;40801;41.924;25.562;2023-02-22T01:09:00;99376.28;;;6.90;57.92
54900;BME280;40801;41.924;25.562;2023-02-22T01:11:26;99378.03;;;6.75;58.42
54900;BME280;40801;41.924;25.562;2023-02-22T01:13:52;99377.28;;;6.65;58.16
54900;BME280;40801;41.924;25.562;2023-02-22T01:16:18;99374.88;;;6.68;58.68
54900;BME280;40801;41.924;25.562;2023-02-22T01:18:44;99375.44;;;6.60;58.80
54900;BME280;40801;41.924;25.562;2023-02-22T01:21:10;99379.16;;;6.64;59.05
54900;BME280;40801;41.924;25.562;2023-02-22T01:23:35;99372.47;;;6.67;58.92
54900;BME280;40801;41.924;25.562;2023-02-22T01:26:01;99379.72;;;6.61;58.92
54900;BME280;40801;41.924;25.562;2023-02-22T01:28:30;99378.91;;;6.66;58.25
54900;BME280;40801;41.924;25.562;2023-02-22T01:30:55;99384.31;;;6.56;59.27
54900;BME280;40801;41.924;25.562;2023-02-22T01:33:21;99379.72;;;6.66;58.48
54900;BME280;40801;41.924;25.562;2023-02-22T01:35:46;99386.22;;;6.50;59.39
54900;BME280;40801;41.924;25.562;2023-02-22T01:38:12;99377.72;;;6.43;59.47
54900;BME280;40801;41.924;25.562;2023-02-22T01:40:40;99377.44;;;6.44;59.65
54900;BME280;40801;41.924;25.562;2023-02-22T01:43:20;99383.63;;;6.35;60.84
54900;BME280;40801;41.924;25.562;2023-02-22T01:45:57;99380.66;;;6.41;59.90
54900;BME280;40801;41.924;25.562;2023-02-22T01:48:31;99383.59;;;6.45;59.64
54900;BME280;40801;41.924;25.562;2023-02-22T01:51:05;99374.72;;;6.49;58.92
54900;BME280;40801;41.924;25.562;2023-02-22T01:56:17;99389.19;;;6.48;58.93
54900;BME280;40801;41.924;25.562;2023-02-22T01:58:45;99389.41;;;6.57;58.52
54900;BME280;40801;41.924;25.562;2023-02-22T02:01:13;99385.72;;;6.48;59.22
54900;BME280;40801;41.924;25.562;2023-02-22T02:03:39;99383.09;;;6.38;59.19
54900;BME280;40801;41.924;25.562;2023-02-22T02:06:11;99384.38;;;6.45;59.86
54900;BME280;40801;41.924;25.562;2023-02-22T02:08:53;99372.91;;;6.40;59.82
54900;BME280;40801;41.924;25.562;2023-02-22T02:11:23;99374.28;;;6.37;59.58
54900;BME280;40801;41.924;25.562;2023-02-22T02:13:51;99376.16;;;6.37;58.79
54900;BME280;40801;41.924;25.562;2023-02-22T02:16:20;99374.53;;;6.36;59.15
54900;BME280;40801;41.924;25.562;2023-02-22T02:18:47;99363.03;;;6.30;59.06
54900;BME280;40801;41.924;25.562;2023-02-22T02:22:12;99375.72;;;6.14;61.39
54900;BME280;40801;41.924;25.562;2023-02-22T02:24:50;99380.78;;;6.21;59.63
54900;BME280;40801;41.924;25.562;2023-02-22T02:27:40;99386.63;;;6.28;58.96
54900;BME280;40801;41.924;25.562;2023-02-22T02:32:56;99389.88;;;6.20;58.79
54900;BME280;40801;41.924;25.562;2023-02-22T02:38:08;99392.81;;;6.24;58.98
54900;BME280;40801;41.924;25.562;2023-02-22T02:40:48;99371.38;;;6.24;58.89
54900;BME280;40801;41.924;25.562;2023-02-22T02:43:37;99382.41;;;6.17;59.77
54900;BME280;40801;41.924;25.562;2023-02-22T02:48:33;99386.97;;;6.16;59.68
54900;BME280;40801;41.924;25.562;2023-02-22T02:51:01;99393.38;;;6.15;59.99
54900;BME280;40801;41.924;25.562;2023-02-22T02:53:35;99388.81;;;6.21;59.97
54900;BME280;40801;41.924;25.562;2023-02-22T02:56:01;99390.66;;;6.26;59.33
54900;BME280;40801;41.924;25.562;2023-02-22T02:58:27;99388.56;;;6.17;59.46
54900;BME280;40801;41.924;25.562;2023-02-22T03:00:56;99385.59;;;6.19;59.71
54900;BME280;40801;41.924;25.562;2023-02-22T03:09:15;99395.09;;;5.91;60.67
54900;BME280;40801;41.924;25.562;2023-02-22T03:11:57;99400.47;;;5.81;61.49
54900;BME280;40801;41.924;25.562;2023-02-22T03:17:54;99398.84;;;5.75;61.67
54900;BME280;40801;41.924;25.562;2023-02-22T03:23:30;99408.47;;;5.76;61.31
54900;BME280;40801;41.924;25.562;2023-02-22T03:26:03;99404.50;;;5.78;60.66
54900;BME280;40801;41.924;25.562;2023-02-22T03:28:32;99413.56;;;5.77;60.36
54900;BME280;40801;41.924;25.562;2023-02-22T03:31:05;99404.75;;;5.72;60.54
54900;BME280;40801;41.924;25.562;2023-02-22T03:33:42;99418.41;;;5.70;61.14
54900;BME280;40801;41.924;25.562;2023-02-22T03:36:17;99424.84;;;5.64;61.33
54900;BME280;40801;41.924;25.562;2023-02-22T03:38:44;99419.50;;;5.59;60.80
54900;BME280;40801;41.924;25.562;2023-02-22T03:41:12;99417.38;;;5.51;60.83
54900;BME280;40801;41.924;25.562;2023-02-22T03:43:54;99414.19;;;5.39;62.08
54900;BME280;40801;41.924;25.562;2023-02-22T03:46:22;99422.47;;;5.32;61.08
54900;BME280;40801;41.924;25.562;2023-02-22T03:51:14;99419.53;;;5.34;61.00
54900;BME280;40801;41.924;25.562;2023-02-22T03:53:42;99420.34;;;5.39;60.58
54900;BME280;40801;41.924;25.562;2023-02-22T03:56:11;99415.78;;;5.35;60.90
54900;BME280;40801;41.924;25.562;2023-02-22T03:58:39;99413.13;;;5.29;60.54
54900;BME280;40801;41.924;25.562;2023-02-22T04:01:08;99418.75;;;5.28;61.03
54900;BME280;40801;41.924;25.562;2023-02-22T04:03:34;99420.63;;;5.22;61.14
54900;BME280;40801;41.924;25.562;2023-02-22T04:05:59;99425.69;;;5.29;60.87
54900;BME280;40801;41.924;25.562;2023-02-22T04:08:24;99427.84;;;5.32;60.63
54900;BME280;40801;41.924;25.562;2023-02-22T04:10:50;99425.69;;;5.29;60.83
54900;BME280;40801;41.924;25.562;2023-02-22T04:13:15;99421.69;;;5.21;61.65
54900;BME280;40801;41.924;25.562;2023-02-22T04:15:41;99423.28;;;5.12;61.69
54900;BME280;40801;41.924;25.562;2023-02-22T04:18:06;99421.16;;;4.99;62.08
54900;BME280;40801;41.924;25.562;2023-02-22T04:20:32;99416.59;;;5.15;61.23
54900;BME280;40801;41.924;25.562;2023-02-22T04:22:59;99418.22;;;5.11;61.49
54900;BME280;40801;41.924;25.562;2023-02-22T04:25:24;99412.09;;;4.95;61.96
54900;BME280;40801;41.924;25.562;2023-02-22T04:27:50;99413.41;;;5.08;61.04
54900;BME280;40801;41.924;25.562;2023-02-22T04:30:18;99419.03;;;5.01;61.88
54900;BME280;40801;41.924;25.562;2023-02-22T04:32:44;99421.69;;;5.06;61.70
54900;BME280;40801;41.924;25.562;2023-02-22T04:35:10;99416.88;;;4.98;61.30
54900;BME280;40801;41.924;25.562;2023-02-22T04:37:35;99425.97;;;4.92;61.29
54900;BME280;40801;41.924;25.562;2023-02-22T04:40:02;99433.44;;;4.90;61.38
54900;BME280;40801;41.924;25.562;2023-02-22T04:42:31;99434.53;;;4.94;61.71
54900;BME280;40801;41.924;25.562;2023-02-22T04:44:56;99429.44;;;4.92;61.12
54900;BME280;40801;41.924;25.562;2023-02-22T04:47:22;99425.72;;;4.98;60.58
54900;BME280;40801;41.924;25.562;2023-02-22T04:49:47;99438.00;;;5.00;61.08
54900;BME280;40801;41.924;25.562;2023-02-22T04:52:13;99436.91;;;4.90;61.21
54900;BME280;40801;41.924;25.562;2023-02-22T04:54:40;99437.97;;;4.79;61.43
54900;BME280;40801;41.924;25.562;2023-02-22T04:57:05;99431.81;;;4.89;61.18
54900;BME280;40801;41.924;25.562;2023-02-22T04:59:30;99437.97;;;4.89;61.57
54900;BME280;40801;41.924;25.562;2023-02-22T05:01:57;99438.53;;;5.02;61.07
54900;BME280;40801;41.924;25.562;2023-02-22T05:04:23;99429.69;;;4.91;61.62
54900;BME280;40801;41.924;25.562;2023-02-22T05:06:48;99425.41;;;4.85;61.82
54900;BME280;40801;41.924;25.562;2023-02-22T05:09:14;99438.81;;;5.00;61.29
54900;BME280;40801;41.924;25.562;2023-02-22T05:11:39;99431.03;;;5.09;60.85
54900;BME280;40801;41.924;25.562;2023-02-22T05:14:05;99436.94;;;5.21;60.85
54900;BME280;40801;41.924;25.562;2023-02-22T05:16:30;99445.19;;;5.45;59.90
54900;BME280;40801;41.924;25.562;2023-02-22T05:18:56;99453.47;;;5.43;60.09
54900;BME280;40801;41.924;25.562;2023-02-22T05:21:21;99454.81;;;5.61;59.51
54900;BME280;40801;41.924;25.562;2023-02-22T05:23:47;99455.59;;;5.72;59.48
54900;BME280;40801;41.924;25.562;2023-02-22T05:26:13;99450.22;;;5.77;59.88
54900;BME280;40801;41.924;25.562;2023-02-22T05:28:38;99460.16;;;5.66;60.31
54900;BME280;40801;41.924;25.562;2023-02-22T05:31:04;99454.25;;;5.79;59.58
54900;BME280;40801;41.924;25.562;2023-02-22T05:33:31;99457.72;;;5.90;59.70
54900;BME280;40801;41.924;25.562;2023-02-22T05:35:57;99462.22;;;6.05;59.25
54900;BME280;40801;41.924;25.562;2023-02-22T05:38:22;99451.78;;;6.13;59.14
54900;BME280;40801;41.924;25.562;2023-02-22T05:40:48;99464.53;;;6.37;58.33
54900;BME280;40801;41.924;25.562;2023-02-22T05:43:14;99463.44;;;6.43;58.53
54900;BME280;40801;41.924;25.562;2023-02-22T05:45:40;99461.31;;;6.40;59.02
54900;BME280;40801;41.924;25.562;2023-02-22T05:48:06;99468.00;;;6.42;58.72
54900;BME280;40801;41.924;25.562;2023-02-22T05:50:32;99470.34;;;6.49;58.83
54900;BME280;40801;41.924;25.562;2023-02-22T05:52:58;99472.97;;;6.59;58.88
54900;BME280;40801;41.924;25.562;2023-02-22T05:55:24;99477.25;;;6.65;58.32
54900;BME280;40801;41.924;25.562;2023-02-22T05:57:50;99481.78;;;6.70;58.74
54900;BME280;40801;41.924;25.562;2023-02-22T06:00:28;99479.81;;;6.86;58.62
54900;BME280;40801;41.924;25.562;2023-02-22T06:02:55;99477.59;;;6.93;58.35
54900;BME280;40801;41.924;25.562;2023-02-22T06:05:20;99495.44;;;7.12;57.44
54900;BME280;40801;41.924;25.562;2023-02-22T06:07:46;99480.09;;;7.18;57.44
54900;BME280;40801;41.924;25.562;2023-02-22T06:10:11;99487.53;;;7.31;57.76
54900;BME280;40801;41.924;25.562;2023-02-22T06:12:38;99487.69;;;7.45;56.85
54900;BME280;40801;41.924;25.562;2023-02-22T06:15:03;99485.63;;;7.66;56.95
54900;BME280;40801;41.924;25.562;2023-02-22T06:17:29;99490.59;;;7.83;56.19
54900;BME280;40801;41.924;25.562;2023-02-22T06:19:54;99492.00;;;7.99;55.79
54900;BME280;40801;41.924;25.562;2023-02-22T06:22:20;99496.72;;;8.12;55.72
54900;BME280;40801;41.924;25.562;2023-02-22T06:24:45;99496.31;;;8.24;55.70
54900;BME280;40801;41.924;25.562;2023-02-22T06:27:11;99500.50;;;8.35;55.14
54900;BME280;40801;41.924;25.562;2023-02-22T06:29:36;99497.84;;;8.54;55.43
54900;BME280;40801;41.924;25.562;2023-02-22T06:32:02;99496.88;;;8.68;54.75
54900;BME280;40801;41.924;25.562;2023-02-22T06:34:27;99493.69;;;8.85;54.10
54900;BME280;40801;41.924;25.562;2023-02-22T06:36:52;99501.34;;;8.97;54.15
54900;BME280;40801;41.924;25.562;2023-02-22T06:39:18;99495.13;;;9.15;53.71
54900;BME280;40801;41.924;25.562;2023-02-22T06:41:44;99496.50;;;9.31;53.86
54900;BME280;40801;41.924;25.562;2023-02-22T06:44:12;99495.34;;;9.51;52.86
54900;BME280;40801;41.924;25.562;2023-02-22T06:46:38;99498.19;;;9.60;53.16
54900;BME280;40801;41.924;25.562;2023-02-22T06:49:04;99493.06;;;9.91;52.28
54900;BME280;40801;41.924;25.562;2023-02-22T06:51:30;99495.41;;;10.39;52.26
54900;BME280;40801;41.924;25.562;2023-02-22T06:53:59;99493.94;;;11.18;51.90
54900;BME280;40801;41.924;25.562;2023-02-22T06:56:25;99492.53;;;12.28;51.44
54900;BME280;40801;41.924;25.562;2023-02-22T06:58:50;99489.03;;;13.27;49.83
54900;BME280;40801;41.924;25.562;2023-02-22T07:01:16;99465.84;;;13.90;47.25
54900;BME280;40801;41.924;25.562;2023-02-22T07:03:41;99477.38;;;14.17;45.76
54900;BME280;40801;41.924;25.562;2023-02-22T07:06:07;99474.03;;;14.79;44.81
54900;BME280;40801;41.924;25.562;2023-02-22T07:08:32;99477.19;;;15.56;43.82
54900;BME280;40801;41.924;25.562;2023-02-22T07:10:58;99474.94;;;16.15;42.52
54900;BME280;40801;41.924;25.562;2023-02-22T07:13:23;99468.94;;;16.58;41.78
54900;BME280;40801;41.924;25.562;2023-02-22T07:15:49;99461.00;;;16.78;40.41
54900;BME280;40801;41.924;25.562;2023-02-22T07:18:14;99469.19;;;16.78;39.63
54900;BME280;40801;41.924;25.562;2023-02-22T07:20:41;99464.03;;;16.88;39.22
54900;BME280;40801;41.924;25.562;2023-02-22T07:23:06;99461.97;;;16.97;39.19
54900;BME280;40801;41.924;25.562;2023-02-22T07:25:32;99466.88;;;16.92;38.71
54900;BME280;40801;41.924;25.562;2023-02-22T07:27:57;99460.47;;;17.00;38.59
54900;BME280;40801;41.924;25.562;2023-02-22T07:30:30;99468.75;;;17.03;38.30
54900;BME280;40801;41.924;25.562;2023-02-22T07:32:58;99472.91;;;16.85;38.36
54900;BME280;40801;41.924;25.562;2023-02-22T07:35:26;99472.50;;;16.99;38.27
54900;BME280;40801;41.924;25.562;2023-02-22T07:37:52;99466.81;;;17.04;38.17
54900;BME280;40801;41.924;25.562;2023-02-22T07:40:18;99460.47;;;17.12;37.99
54900;BME280;40801;41.924;25.562;2023-02-22T07:45:33;99469.28;;;17.21;38.45
54900;BME280;40801;41.924;25.562;2023-02-22T07:48:01;99459.16;;;17.93;38.13
54900;BME280;40801;41.924;25.562;2023-02-22T07:50:29;99461.31;;;18.51;37.67
54900;BME280;40801;41.924;25.562;2023-02-22T07:52:57;99455.88;;;19.05;36.97
54900;BME280;40801;41.924;25.562;2023-02-22T07:55:26;99445.78;;;19.48;36.02
54900;BME280;40801;41.924;25.562;2023-02-22T07:57:53;99445.41;;;20.15;35.65
54900;BME280;40801;41.924;25.562;2023-02-22T08:00:42;99438.84;;;21.02;33.68
54900;BME280;40801;41.924;25.562;2023-02-22T08:03:10;99442.09;;;21.82;33.01
54900;BME280;40801;41.924;25.562;2023-02-22T08:05:37;99439.31;;;22.22;32.59
54900;BME280;40801;41.924;25.562;2023-02-22T08:08:04;99439.34;;;22.84;30.92
54900;BME280;40801;41.924;25.562;2023-02-22T08:10:30;99427.22;;;23.03;29.93
54900;BME280;40801;41.924;25.562;2023-02-22T08:12:56;99439.56;;;23.45;29.26
54900;BME280;40801;41.924;25.562;2023-02-22T08:15:26;99427.84;;;24.16;27.98
54900;BME280;40801;41.924;25.562;2023-02-22T08:17:56;99431.28;;;24.80;28.10
54900;BME280;40801;41.924;25.562;2023-02-22T08:20:22;99427.38;;;24.78;26.74
54900;BME280;40801;41.924;25.562;2023-02-22T08:22:48;99422.22;;;24.87;26.24
54900;BME280;40801;41.924;25.562;2023-02-22T08:25:15;99429.84;;;24.33;26.20
54900;BME280;40801;41.924;25.562;2023-02-22T08:27:41;99416.81;;;23.94;25.97
54900;BME280;40801;41.924;25.562;2023-02-22T08:30:12;99419.63;;;24.30;25.81
54900;BME280;40801;41.924;25.562;2023-02-22T08:32:38;99421.16;;;24.45;25.49
54900;BME280;40801;41.924;25.562;2023-02-22T08:35:04;99423.47;;;24.64;25.26
54900;BME280;40801;41.924;25.562;2023-02-22T08:37:30;99421.34;;;25.11;24.90
54900;BME280;40801;41.924;25.562;2023-02-22T08:39:55;99414.88;;;25.43;24.00
54900;BME280;40801;41.924;25.562;2023-02-22T08:42:21;99415.13;;;25.62;23.20
54900;BME280;40801;41.924;25.562;2023-02-22T08:44:46;99403.69;;;26.61;23.09
54900;BME280;40801;41.924;25.562;2023-02-22T08:47:11;99404.56;;;26.84;22.40
54900;BME280;40801;41.924;25.562;2023-02-22T08:49:37;99399.78;;;27.23;21.87
54900;BME280;40801;41.924;25.562;2023-02-22T08:52:02;99400.00;;;27.62;20.91
54900;BME280;40801;41.924;25.562;2023-02-22T08:54:28;99400.09;;;27.82;20.36
54900;BME280;40801;41.924;25.562;2023-02-22T08:56:53;99394.00;;;27.91;20.24
54900;BME280;40801;41.924;25.562;2023-02-22T08:59:19;99390.69;;;28.66;19.75
54900;BME280;40801;41.924;25.562;2023-02-22T09:01:44;99394.69;;;29.05;19.23
54900;BME280;40801;41.924;25.562;2023-02-22T09:04:09;99389.06;;;28.88;18.89
54900;BME280;40801;41.924;25.562;2023-02-22T09:06:35;99385.78;;;29.66;18.35
54900;BME280;40801;41.924;25.562;2023-02-22T09:09:01;99391.50;;;29.58;18.48
54900;BME280;40801;41.924;25.562;2023-02-22T09:11:27;99381.78;;;29.50;17.99
54900;BME280;40801;41.924;25.562;2023-02-22T09:13:52;99389.16;;;29.73;18.07
54900;BME280;40801;41.924;25.562;2023-02-22T09:16:18;99382.97;;;29.98;17.73
54900;BME280;40801;41.924;25.562;2023-02-22T09:18:43;99392.66;;;30.10;17.58
54900;BME280;40801;41.924;25.562;2023-02-22T09:21:08;99392.47;;;29.84;17.88
54900;BME280;40801;41.924;25.562;2023-02-22T09:23:34;99382.72;;;29.92;17.65
54900;BME280;40801;41.924;25.562;2023-02-22T09:25:59;99373.63;;;29.59;17.36
54900;BME280;40801;41.924;25.562;2023-02-22T09:28:28;99373.00;;;30.17;17.44
54900;BME280;40801;41.924;25.562;2023-02-22T09:30:53;99379.06;;;30.86;17.79
54900;BME280;40801;41.924;25.562;2023-02-22T09:33:20;99377.66;;;30.36;17.40
54900;BME280;40801;41.924;25.562;2023-02-22T09:35:47;99378.81;;;30.51;17.12
54900;BME280;40801;41.924;25.562;2023-02-22T09:38:22;99357.88;;;30.89;16.48
54900;BME280;40801;41.924;25.562;2023-02-22T09:40:59;99365.97;;;31.50;16.19
54900;BME280;40801;41.924;25.562;2023-02-22T09:51:32;99355.94;;;31.40;15.63
54900;BME280;40801;41.924;25.562;2023-02-22T09:54:02;99355.19;;;31.27;16.17
54900;BME280;40801;41.924;25.562;2023-02-22T09:56:28;99348.00;;;31.13;15.38
54900;BME280;40801;41.924;25.562;2023-02-22T09:58:59;99351.06;;;32.04;15.43
54900;BME280;40801;41.924;25.562;2023-02-22T10:01:41;99341.69;;;32.11;15.07
54900;BME280;40801;41.924;25.562;2023-02-22T10:09:51;99333.25;;;32.23;15.21
54900;BME280;40801;41.924;25.562;2023-02-22T10:12:37;99328.03;;;32.69;14.20
54900;BME280;40801;41.924;25.562;2023-02-22T10:25:51;99315.81;;;31.97;14.45
54900;BME280;40801;41.924;25.562;2023-02-22T10:28:27;99306.66;;;32.31;14.16
54900;BME280;40801;41.924;25.562;2023-02-22T10:31:08;99301.72;;;32.79;14.26
54900;BME280;40801;41.924;25.562;2023-02-22T10:33:45;99298.47;;;33.21;13.38
54900;BME280;40801;41.924;25.562;2023-02-22T10:36:19;99294.06;;;33.42;13.52
54900;BME280;40801;41.924;25.562;2023-02-22T10:38:54;99290.09;;;34.25;13.11
54900;BME280;40801;41.924;25.562;2023-02-22T10:41:45;99289.56;;;33.53;13.19
54900;BME280;40801;41.924;25.562;2023-02-22T10:44:13;99292.09;;;33.70;13.58
54900;BME280;40801;41.924;25.562;2023-02-22T10:46:40;99274.69;;;33.75;13.87
54900;BME280;40801;41.924;25.562;2023-02-22T10:49:07;99274.69;;;33.75;14.02
54900;BME280;40801;41.924;25.562;2023-02-22T10:51:35;99270.34;;;34.47;13.26
54900;BME280;40801;41.924;25.562;2023-02-22T10:56:47;99265.22;;;33.72;12.77
54900;BME280;40801;41.924;25.562;2023-02-22T10:59:25;99259.94;;;34.20;13.02
54900;BME280;40801;41.924;25.562;2023-02-22T11:01:51;99252.66;;;34.13;13.53
54900;BME280;40801;41.924;25.562;2023-02-22T11:04:19;99247.47;;;34.30;12.95
54900;BME280;40801;41.924;25.562;2023-02-22T11:07:06;99248.94;;;35.43;11.96
54900;BME280;40801;41.924;25.562;2023-02-22T11:09:51;99243.56;;;35.54;11.94
54900;BME280;40801;41.924;25.562;2023-02-22T11:12:21;99260.25;;;34.04;12.71
54900;BME280;40801;41.924;25.562;2023-02-22T11:14:50;99233.38;;;34.67;12.26
54900;BME280;40801;41.924;25.562;2023-02-22T11:17:24;99236.84;;;35.04;11.88
54900;BME280;40801;41.924;25.562;2023-02-22T11:19:50;99229.56;;;34.55;12.87
54900;BME280;40801;41.924;25.562;2023-02-22T11:22:29;99229.22;;;35.04;12.33
54900;BME280;40801;41.924;25.562;2023-02-22T11:24:59;99222.75;;;34.80;12.23
54900;BME280;40801;41.924;25.562;2023-02-22T11:27:38;99219.97;;;35.13;12.28
54900;BME280;40801;41.924;25.562;2023-02-22T11:32:47;99229.47;;;35.63;11.71
54900;BME280;40801;41.924;25.562;2023-02-22T11:37:52;99218.47;;;35.27;12.17
54900;BME280;40801;41.924;25.562;2023-02-22T11:40:20;99227.50;;;35.55;12.05
54900;BME280;40801;41.924;25.562;2023-02-22T11:43:06;99214.47;;;35.19;11.26
54900;BME280;40801;41.924;25.562;2023-02-22T11:45:35;99210.84;;;35.03;11.63
54900;BME280;40801;41.924;25.562;2023-02-22T11:48:02;99214.34;;;34.80;11.53
54900;BME280;40801;41.924;25.562;2023-02-22T11:50:35;99203.22;;;35.28;11.56
54900;BME280;40801;41.924;25.562;2023-02-22T11:53:28;99207.94;;;35.46;10.96
54900;BME280;40801;41.924;25.562;2023-02-22T11:58:47;99191.06;;;34.65;11.44
54900;BME280;40801;41.924;25.562;2023-02-22T12:01:34;99200.75;;;34.97;11.37
54900;BME280;40801;41.924;25.562;2023-02-22T12:09:40;99185.41;;;35.55;10.79
54900;BME280;40801;41.924;25.562;2023-02-22T12:25:40;99178.47;;;36.48;10.70
54900;BME280;40801;41.924;25.562;2023-02-22T12:28:34;99170.06;;;36.18;10.15
54900;BME280;40801;41.924;25.562;2023-02-22T12:36:39;99164.56;;;36.74;10.15
54900;BME280;40801;41.924;25.562;2023-02-22T12:42:23;99166.53;;;36.53;11.04
54900;BME280;40801;41.924;25.562;2023-02-22T12:45:03;99162.34;;;35.12;11.34
54900;BME280;40801;41.924;25.562;2023-02-22T12:47:38;99166.97;;;35.63;11.09
54900;BME280;40801;41.924;25.562;2023-02-22T12:50:16;99165.56;;;35.82;11.04
54900;BME280;40801;41.924;25.562;2023-02-22T12:53:19;99163.19;;;36.19;10.29
54900;BME280;40801;41.924;25.562;2023-02-22T12:55:52;99162.69;;;35.91;11.30
54900;BME280;40801;41.924;25.562;2023-02-22T12:58:44;99159.47;;;36.13;10.98
54900;BME280;40801;41.924;25.562;2023-02-22T13:01:19;99159.19;;;36.26;10.72
54900;BME280;40801;41.924;25.562;2023-02-22T13:03:45;99151.94;;;36.84;10.34
54900;BME280;40801;41.924;25.562;2023-02-22T13:11:58;99148.06;;;35.49;10.89
54900;BME280;40801;41.924;25.562;2023-02-22T13:17:22;99133.34;;;36.07;10.57
54900;BME280;40801;41.924;25.562;2023-02-22T13:20:06;99143.03;;;36.36;10.42
54900;BME280;40801;41.924;25.562;2023-02-22T13:26:04;99139.84;;;35.98;10.95
54900;BME280;40801;41.924;25.562;2023-02-22T13:28:30;99145.91;;;35.67;10.05
54900;BME280;40801;41.924;25.562;2023-02-22T13:31:13;99141.06;;;35.68;10.72
54900;BME280;40801;41.924;25.562;2023-02-22T13:52:49;99133.97;;;34.20;11.57
54900;BME280;40801;41.924;25.562;2023-02-22T13:55:28;99134.44;;;34.61;10.91
54900;BME280;40801;41.924;25.562;2023-02-22T13:58:02;99134.91;;;34.92;11.38
54900;BME280;40801;41.924;25.562;2023-02-22T14:00:47;99136.47;;;34.93;11.40
54900;BME280;40801;41.924;25.562;2023-02-22T14:08:04;99122.72;;;35.04;11.30
54900;BME280;40801;41.924;25.562;2023-02-22T14:10:38;99135.34;;;35.00;11.10
54900;BME280;40801;41.924;25.562;2023-02-22T14:13:06;99127.84;;;34.40;11.42
54900;BME280;40801;41.924;25.562;2023-02-22T14:15:31;99127.28;;;34.60;11.47
54900;BME280;40801;41.924;25.562;2023-02-22T14:17:59;99127.16;;;34.87;11.81
54900;BME280;40801;41.924;25.562;2023-02-22T14:20:36;99126.63;;;34.98;11.17
54900;BME280;40801;41.924;25.562;2023-02-22T14:23:40;99128.66;;;34.64;11.85
54900;BME280;40801;41.924;25.562;2023-02-22T14:26:12;99136.72;;;34.29;11.57
54900;BME280;40801;41.924;25.562;2023-02-22T14:28:40;99126.91;;;34.43;11.47
54900;BME280;40801;41.924;25.562;2023-02-22T14:31:09;99123.91;;;34.04;11.53
54900;BME280;40801;41.924;25.562;2023-02-22T14:42:03;99124.56;;;32.58;12.61
54900;BME280;40801;41.924;25.562;2023-02-22T14:44:35;99128.66;;;31.61;13.11
54900;BME280;40801;41.924;25.562;2023-02-22T14:47:06;99126.00;;;30.50;13.70
54900;BME280;40801;41.924;25.562;2023-02-22T14:49:35;99121.75;;;29.20;14.44
54900;BME280;40801;41.924;25.562;2023-02-22T14:52:10;99124.44;;;28.43;14.92
54900;BME280;40801;41.924;25.562;2023-02-22T14:58:13;99131.47;;;26.54;16.37
54900;BME280;40801;41.924;25.562;2023-02-22T15:00:48;99132.28;;;26.24;17.04
54900;BME280;40801;41.924;25.562;2023-02-22T15:06:05;99127.38;;;25.78;17.09
54900;BME280;40801;41.924;25.562;2023-02-22T15:08:32;99127.53;;;25.60;17.17
54900;BME280;40801;41.924;25.562;2023-02-22T15:10:58;99123.88;;;25.33;17.16
54900;BME280;40801;41.924;25.562;2023-02-22T15:13:28;99129.59;;;25.12;17.40
54900;BME280;40801;41.924;25.562;2023-02-22T15:16:02;99132.53;;;24.90;17.93
54900;BME280;40801;41.924;25.562;2023-02-22T15:18:34;99126.47;;;24.61;18.73
54900;BME280;40801;41.924;25.562;2023-02-22T15:21:08;99126.25;;;24.34;19.44
54900;BME280;40801;41.924;25.562;2023-02-22T15:23:53;99124.78;;;24.08;20.49
54900;BME280;40801;41.924;25.562;2023-02-22T15:26:36;99133.19;;;23.80;20.09
54900;BME280;40801;41.924;25.562;2023-02-22T15:29:20;99130.13;;;23.46;22.68